• Join FlightAware (Why Join?)
  • Login
  • US Flag 
01:11AM EDT


 

Airport Tracker/Info


-or-


 

Live Flight TrackerFlight Track Log ✈ AAL832 ✈ 07-May-2013 ✈ KLAX - KORD

Flight Track Log - Related Links

Times and Time Zones

All times are in EDT time to prevent confusion due to time zone crossing. See the AAL832 flight status page for this flight to view local times or setup timezone preferences in your user account.

Time Position Orientation Groundspeed Altitude Reporting Facility
EDT Latitude Longitude Course Direction KTS MPH feet Rate Location/Type
12:16PM 33.9333 -118.4333 90° East 189 217 2,100  Level Southern California TRACON
12:17PM 33.9194 -118.4817 251° West 232 267 3,500 2,820 Climbing Los Angeles Center
12:18PM 33.7667 -118.0038 90° East  Level FlightAware Approximate
12:18PM 33.8383 -118.5242 204° Southwest 263 303 7,600  Level Los Angeles Center
12:19PM 33.7667 -117.8500 90° East  Level FlightAware Approximate
12:19PM 33.7703 -118.5206 177° South 281 323 10,200  Level Los Angeles Center
12:20PM 33.7433 -117.6997 97° East  Level FlightAware Approximate
12:20PM 33.6794 -118.4661 153° Southeast 339 390 13,000  Level Los Angeles Center
12:21PM 33.7333 -117.5467 90° East  Level FlightAware Approximate
12:21PM 33.6661 -118.3522 98° East 362 417 15,300  Level Los Angeles Center
12:22PM 33.6650 -118.2228 91° East 400 460 17,500 1,980 Climbing Los Angeles Center
12:23PM 33.6628 -118.0506 91° East 435 501 19,400 1,740 Climbing Los Angeles Center
12:24PM 33.6611 -117.8939 91° East 465 535 21,100 1,740 Climbing Los Angeles Center
12:25PM 33.6600 -117.7289 90° East 491 565 23,100 1,860 Climbing Los Angeles Center
12:26PM 33.6586 -117.5597 91° East 503 579 25,000 1,620 Climbing Los Angeles Center
12:27PM 33.6550 -117.3858 91° East 518 596 26,500 1,440 Climbing Los Angeles Center
12:28PM 33.6514 -117.2036 91° East 539 620 28,000 1,560 Climbing Los Angeles Center
12:29PM 33.6458 -116.9803 92° East 559 643 29,800 1,380 Climbing Los Angeles Center
12:31PM 33.6428 -116.7981 91° East 566 651 31,200 1,500 Climbing Los Angeles Center
12:32PM 33.6511 -116.6094 87° East 565 650 33,300 2,040 Climbing Los Angeles Center
12:33PM 33.6964 -116.3950 76° East 551 634 35,500 1,680 Climbing Los Angeles Center
12:34PM 33.7375 -116.2206 74° East 543 625 36,900 720 Climbing Los Angeles Center
12:35PM 33.7878 -116.0106 74° East 544 626 37,000  Climbing Los Angeles Center
12:36PM 33.8294 -115.8364 74° East 542 624 37,000  Level Los Angeles Center
12:37PM 33.8717 -115.6625 74° East 542 624 37,000  Level Los Angeles Center
12:38PM 33.9061 -115.5228 73° East 543 625 37,000  Level Los Angeles Center
12:39PM 33.9556 -115.3108 74° East 549 632 37,000  Level Los Angeles Center
12:40PM 33.9972 -115.1361 74° East 545 627 37,000  Level Los Angeles Center
12:41PM 34.0369 -114.9603 75° East 544 626 37,000  Level Los Angeles Center
12:42PM 34.0875 -114.7514 74° East 541 623 37,000  Level Los Angeles Center
12:43PM 34.1328 -114.5786 72° East 547 629 37,000  Level Los Angeles Center
12:44PM 34.1817 -114.4064 71° East 544 626 37,000  Level Los Angeles Center
12:45PM 34.2092 -114.3064 72° East 538 619 37,000  Level Albuquerque Center
12:46PM 34.2694 -114.1031 70° East 537 618 37,000  Level Albuquerque Center
12:47PM 34.3300 -113.9406 66° East 532 612 37,000  Level Albuquerque Center
12:48PM 34.3933 -113.7783 65° Northeast 533 613 37,000  Level Albuquerque Center
12:49PM 34.4517 -113.6278 65° Northeast 532 612 37,000  Level Albuquerque Center
12:50PM 34.5258 -113.4328 65° Northeast 534 615 37,000  Level Albuquerque Center
12:51PM 34.5867 -113.2700 66° East 535 616 37,000  Level Albuquerque Center
12:52PM 34.6478 -113.1058 66° East 537 618 37,000  Level Albuquerque Center
12:53PM 34.7092 -112.9422 65° Northeast 538 619 37,000  Level Albuquerque Center
12:54PM 34.7689 -112.7775 66° East 539 620 37,000  Level Albuquerque Center
12:55PM 34.8414 -112.5817 66° East 536 617 37,000  Level Albuquerque Center
12:56PM 34.9017 -112.4181 66° East 536 617 37,000  Level Albuquerque Center
12:57PM 34.9617 -112.2550 66° East 534 615 37,000  Level Albuquerque Center
12:58PM 35.0217 -112.0906 66° East 535 616 37,000  Level Albuquerque Center
12:59PM 35.0819 -111.9264 66° East 535 616 37,000  Level Albuquerque Center
01:00PM 35.1531 -111.7303 66° East 532 612 37,000  Level Albuquerque Center
01:01PM 35.2092 -111.5717 67° East 531 611 37,000  Level Albuquerque Center
01:02PM 35.2692 -111.4081 66° East 529 609 37,000  Level Albuquerque Center
01:03PM 35.3356 -111.2200 67° East 528 608 37,000  Level Albuquerque Center
01:04PM 35.3908 -111.0639 66° East 524 603 37,000  Level Albuquerque Center
01:05PM 35.4575 -110.8819 66° East 524 603 37,000  Level Albuquerque Center
01:06PM 35.5122 -110.7269 67° East 520 598 37,000  Level Albuquerque Center
01:07PM 35.5758 -110.5439 67° East 522 601 37,000  Level Albuquerque Center
01:09PM 35.6306 -110.3869 67° East 522 601 37,000  Level Albuquerque Center
01:10PM 35.6956 -110.2050 66° East 521 600 37,000  Level Albuquerque Center
01:11PM 35.7492 -110.0472 67° East 521 600 37,000  Level Albuquerque Center
01:12PM 35.8122 -109.8639 67° East 521 600 37,000  Level Albuquerque Center
01:13PM 35.8656 -109.7072 67° East 519 597 37,000  Level Albuquerque Center
01:13PM 35.8931 -109.6292 66° East 520 598 37,000  Level Denver Center
01:14PM 35.9278 -109.5239 68° East 518 596 37,000  Level Albuquerque Center
01:14PM 35.9542 -109.4467 67° East 515 593 37,000  Level Denver Center
01:15PM 35.9811 -109.3667 67° East 519 597 37,000  Level Albuquerque Center
01:16PM 36.0339 -109.2089 67° East 518 596 37,000  Level Albuquerque Center
01:16PM 36.0686 -109.1033 68° East 519 597 37,000  Level Denver Center
01:17PM 36.1219 -108.9450 67° East 517 595 37,000  Level Denver Center
01:18PM 36.1769 -108.7800 68° East 518 596 37,000  Level Denver Center
01:19PM 36.2378 -108.5936 68° East 520 598 37,000  Level Denver Center
01:20PM 36.2886 -108.4367 68° East 515 593 37,000  Level Denver Center
01:21PM 36.3394 -108.2778 68° East 516 594 37,000  Level Denver Center
01:22PM 36.3994 -108.0928 68° East 518 596 37,000  Level Denver Center
01:23PM 36.4506 -107.9364 68° East 514 592 37,000  Level Denver Center
01:25PM 36.5089 -107.7522 68° East 513 590 37,000  Level Denver Center
01:26PM 36.5589 -107.5931 69° East 516 594 37,000  Level Denver Center
01:27PM 36.6186 -107.4072 68° East 517 595 37,000  Level Denver Center
01:28PM 36.6678 -107.2506 69° East 510 587 37,000  Level Denver Center
01:29PM 36.7264 -107.0642 69° East 516 594 37,000  Level Denver Center
01:30PM 36.7758 -106.9069 69° East 509 586 37,000  Level Denver Center
01:31PM 36.8339 -106.7203 69° East 516 594 37,000  Level Denver Center
01:32PM 36.8822 -106.5608 69° East 514 592 37,100 720 Climbing Denver Center
01:33PM 36.9397 -106.3761 69° East 512 589 38,500 900 Climbing Denver Center
01:34PM 36.9869 -106.2169 70° East 511 588 39,000 240 Climbing Denver Center
01:35PM 37.0361 -106.0569 69° East 513 590 39,000  Level Denver Center
01:36PM 37.0922 -105.8728 69° East 509 586 39,000  Level Denver Center
01:37PM 37.1444 -105.6997 69° East 508 585 39,000  Level Denver Center
01:38PM 37.1900 -105.5417 70° East 506 582 39,000  Level Denver Center
01:39PM 37.2436 -105.3558 70° East 506 582 39,000  Level Denver Center
01:40PM 37.2917 -105.1861 70° East 504 580 39,000  Level Denver Center
01:41PM 37.3508 -104.9839 70° East 510 587 39,000  Level Denver Center
01:42PM 37.3958 -104.8222 71° East 510 587 39,000  Level Denver Center
01:43PM 37.4486 -104.6361 70° East 507 583 39,000  Level Denver Center
01:44PM 37.4936 -104.4753 71° East 506 582 39,000  Level Denver Center
01:45PM 37.5467 -104.2878 70° East 508 585 39,000  Level Denver Center
01:46PM 37.5917 -104.1264 71° East 506 582 39,000  Level Denver Center
01:47PM 37.6397 -103.9589 70° East 510 587 39,000  Level Denver Center
01:49PM 37.6908 -103.7700 71° East 506 582 39,000  Level Denver Center
01:50PM 37.7344 -103.6089 71° East 504 580 39,000  Level Denver Center
01:51PM 37.7864 -103.4208 71° East 509 586 39,000  Level Denver Center
01:52PM 37.8294 -103.2589 71° East 508 585 39,000  Level Denver Center
01:53PM 37.8814 -103.0703 71° East 508 585 39,000  Level Denver Center
01:54PM 37.9300 -102.8808 72° East 508 585 39,000  Level Denver Center
01:55PM 37.9800 -102.6914 71° East 508 585 39,000  Level Denver Center
01:56PM 38.0258 -102.5203 71° East 505 581 39,000  Level Denver Center
01:57PM 38.0675 -102.3578 72° East 506 582 39,000  Level Denver Center
01:58PM 38.1175 -102.1692 71° East 505 581 39,000  Level Denver Center
01:59PM 38.1714 -101.9556 72° East 498 573 39,000  Level Denver Center
02:00PM 38.2128 -101.7942 72° East 500 575 39,000  Level Denver Center
02:01PM 38.2522 -101.6342 73° East 495 570 39,000  Level Denver Center
02:02PM 38.3011 -101.4481 71° East 494 568 39,000  Level Denver Center
02:04PM 38.3406 -101.2889 72° East 491 565 39,000  Level Denver Center
02:05PM 38.3931 -101.0783 72° East 488 562 39,000  Level Denver Center
02:06PM 38.4314 -100.9206 73° East 486 559 39,000  Level Denver Center
02:07PM 38.4767 -100.7375 72° East 484 557 39,000  Level Denver Center
02:08PM 38.5139 -100.5800 73° East 483 556 39,000  Level Denver Center
02:09PM 38.5586 -100.3969 73° East 483 556 39,000  Level Denver Center
02:10PM 38.5956 -100.2408 73° East 481 554 39,000  Level Denver Center
02:11PM 38.6328 -100.0842 73° East 482 555 39,000  Level Denver Center
02:12PM 38.6764 -99.9031 73° East 477 549 39,000  Level Denver Center
02:13PM 38.7131 -99.7467 73° East 480 552 39,000  Level Denver Center
02:14PM 38.7561 -99.5628 73° East 480 552 39,000  Level Denver Center
02:15PM 38.7928 -99.4075 73° East 478 550 39,000  Level Denver Center
02:15PM 38.8128 -99.3136 75° East 481 554 39,000  Level Kansas City Center
02:16PM 38.8528 -99.1461 73° East 490 564 39,000  Level Kansas City Center
02:17PM 38.8903 -98.9814 74° East 484 557 39,000  Level Kansas City Center
02:18PM 38.9264 -98.8183 74° East 476 548 39,000  Level Kansas City Center
02:20PM 38.9636 -98.6533 74° East 478 550 39,000  Level Kansas City Center
02:21PM 39.0008 -98.4900 74° East 475 547 39,000  Level Kansas City Center
02:22PM 39.0361 -98.3247 75° East 478 550 39,000  Level Kansas City Center
02:23PM 39.0703 -98.1589 75° East 478 550 39,000  Level Kansas City Center
02:24PM 39.1128 -97.9614 74° East 477 549 39,000  Level Kansas City Center
02:25PM 39.1436 -97.8114 75° East 472 543 39,000  Level Kansas City Center
02:26PM 39.1819 -97.6297 75° East 470 541 39,000  Level Kansas City Center
02:27PM 39.2156 -97.4725 75° East 474 545 39,000  Level Kansas City Center
02:28PM 39.2539 -97.2928 75° East 464 534 39,000  Level Kansas City Center
02:29PM 39.2861 -97.1425 74° East 456 525 39,000  Level Kansas City Center
02:30PM 39.3236 -96.9653 75° East 458 527 39,000  Level Kansas City Center
02:31PM 39.3539 -96.8125 76° East 458 527 39,000  Level Kansas City Center
02:32PM 39.3858 -96.6583 75° East 462 532 39,000  Level Kansas City Center
02:33PM 39.4231 -96.4789 75° East 462 532 39,000  Level Kansas City Center
02:34PM 39.4556 -96.3214 75° East 460 529 39,000  Level Kansas City Center
02:35PM 39.4892 -96.1458 76° East 460 529 39,000  Level Kansas City Center
02:36PM 39.5183 -95.9939 76° East 455 524 39,000  Level Kansas City Center
02:37PM 39.5533 -95.8156 76° East 455 524 39,000  Level Kansas City Center
02:38PM 39.5833 -95.6625 76° East 456 525 39,000  Level Kansas City Center
02:39PM 39.6136 -95.5092 76° East 457 526 39,000  Level Kansas City Center
02:40PM 39.6472 -95.3322 76° East 450 518 39,000  Level Kansas City Center
02:41PM 39.6756 -95.1797 76° East 450 518 39,000  Level Kansas City Center
02:42PM 39.7097 -95.0033 76° East 449 517 39,000  Level Kansas City Center
02:43PM 39.7369 -94.8511 77° East 450 518 39,000  Level Kansas City Center
02:44PM 39.7656 -94.6992 76° East 451 519 39,000  Level Kansas City Center
02:45PM 39.7983 -94.5233 76° East 448 516 39,000  Level Kansas City Center
02:46PM 39.8261 -94.3700 77° East 452 520 39,000  Level Kansas City Center
02:47PM 39.8586 -94.1919 77° East 453 521 39,000  Level Kansas City Center
02:48PM 39.8836 -94.0497 77° East 456 525 39,000  Level Kansas City Center
02:49PM 39.9167 -93.8583 77° East 454 522 39,000  Level Kansas City Center
02:50PM 39.9444 -93.7003 77° East 452 520 39,000  Level Kansas City Center
02:51PM 39.9728 -93.5417 77° East 452 520 39,000  Level Kansas City Center
02:52PM 40.0022 -93.3842 76° East 453 521 39,000  Level Kansas City Center
02:54PM 40.0253 -93.2231 79° East 456 525 39,000  Level Kansas City Center
02:55PM 40.0556 -93.0661 76° East 454 522 39,000  Level Kansas City Center
02:56PM 40.0850 -92.8892 78° East 449 517 39,000  Level Kansas City Center
02:57PM 40.1156 -92.7097 77° East 452 520 39,000  Level Kansas City Center
02:58PM 40.1461 -92.5586 75° East 452 520 39,000  Level Kansas City Center
02:59PM 40.2094 -92.3972 63° Northeast 445 512 39,000  Level Kansas City Center
03:00PM 40.2597 -92.2533 65° Northeast 446 513 39,000  Level Kansas City Center
03:01PM 40.3117 -92.1089 65° Northeast 445 512 39,000 -660 Level Kansas City Center
03:02PM 40.3622 -91.9653 65° Northeast 441 507 37,700 -1,320 Descending Kansas City Center
03:03PM 40.4125 -91.8197 66° East 442 509 36,400 -1,440 Descending Kansas City Center
03:04PM 40.4739 -91.6447 65° Northeast 443 510 34,800 -1,500 Descending Kansas City Center
03:04PM 40.4850 -91.6164 63° Northeast 442 509 34,400 -1,380 Descending Chicago Center
03:05PM 40.5333 -91.4706 66° East 439 505 33,000 -720 Descending Chicago Center
03:06PM 40.5822 -91.3264 66° East 437 503 33,000 -360 Level Chicago Center
03:07PM 40.6447 -91.1433 66° East 450 518 32,300 -1,020 Descending Chicago Center
03:08PM 40.6972 -90.9894 66° East 459 528 31,000 -660 Descending Chicago Center
03:09PM 40.7494 -90.8336 66° East 464 534 31,000  Level Chicago Center
03:10PM 40.8036 -90.6769 65° Northeast 467 537 31,000  Level Chicago Center
03:11PM 40.8558 -90.5194 66° East 468 539 31,000  Level Chicago Center
03:12PM 40.9097 -90.3592 66° East 473 544 31,000 -540 Level Chicago Center
03:13PM 40.9614 -90.1975 67° East 469 540 29,900 -1,920 Descending Chicago Center
03:14PM 41.0256 -90.0044 66° East 475 547 27,100 -2,100 Descending Chicago Center
03:16PM 41.0783 -89.8425 67° East 474 545 25,600 -1,440 Descending Chicago Center
03:17PM 41.1292 -89.6839 67° East 465 535 24,200 -1,440 Descending Chicago Center
03:18PM 41.1831 -89.5319 65° Northeast 454 522 22,700 -1,980 Descending Chicago Center
03:19PM 41.2414 -89.3897 61° Northeast 438 504 20,200 -2,520 Descending Chicago Center
03:20PM 41.2972 -89.2503 62° Northeast 427 491 17,600 -2,520 Descending Chicago Center
03:21PM 41.3567 -89.1028 62° Northeast 404 465 15,100 -2,220 Descending Chicago Center
03:22PM 41.4086 -88.9747 62° Northeast 395 455 13,100 -1,800 Descending Chicago Center
03:23PM 41.4581 -88.8519 62° Northeast 381 438 11,400 -1,020 Descending Chicago Center
03:24PM 41.5031 -88.7342 63° Northeast 364 419 11,000 -240 Descending Chicago Center
03:25PM 41.5406 -88.6361 63° Northeast 310 357 11,000 -120 Level Chicago Center
03:26PM 41.5789 -88.5192 66° East 289 333 10,800 -780 Descending Chicago Center
03:27PM 41.6056 -88.4219 70° East 282 325 9,400 -1,200 Descending Chicago Center
03:29PM 41.6672 -88.2342 66° East 273 314 7,100 -840 Descending Chicago Center
03:30PM 41.7261 -88.1692 39° Northeast 271 312 6,800 -900 Descending Chicago Center
03:31PM 41.7756 -88.1075 43° Northeast 253 291 5,300 -1,440 Descending Chicago Center
03:32PM 41.8300 -88.0444 41° Northeast 232 267 3,900 -1,200 Descending Chicago Center
03:33PM 41.8669 -88.0014 41° Northeast 199 229 2,900 -1,020 Descending Chicago Center